createdAt,value
2022-07-29T00:01:19.503Z,23.70
2022-07-29T00:04:22.528Z,23.70
2022-07-29T00:07:24.860Z,23.70
2022-07-29T00:10:26.665Z,23.70
2022-07-29T00:13:32.262Z,23.70
2022-07-29T00:16:34.788Z,23.70
2022-07-29T00:19:36.648Z,23.60
2022-07-29T00:22:39.458Z,23.50
2022-07-29T00:25:41.243Z,23.50
2022-07-29T00:28:43.067Z,23.60
2022-07-29T00:31:45.080Z,23.50
2022-07-29T00:34:46.998Z,23.50
2022-07-29T00:37:48.806Z,23.50
2022-07-29T00:40:50.651Z,23.40
2022-07-29T00:43:52.402Z,23.40
2022-07-29T00:46:54.418Z,23.30
2022-07-29T00:49:56.363Z,23.20
2022-07-29T00:52:58.255Z,23.20
2022-07-29T00:56:00.403Z,23.40
2022-07-29T00:59:02.421Z,23.20
2022-07-29T01:02:04.510Z,23.30
2022-07-29T01:05:06.893Z,23.10
2022-07-29T01:08:09.276Z,23.10
2022-07-29T01:11:11.278Z,23.10
2022-07-29T01:14:13.639Z,22.90
2022-07-29T01:17:24.732Z,22.90
2022-07-29T01:20:31.331Z,23.10
2022-07-29T01:23:53.890Z,23.00
2022-07-29T01:26:55.627Z,23.00
2022-07-29T01:29:59.250Z,23.10
2022-07-29T01:33:05.134Z,23.00
2022-07-29T01:36:09.143Z,22.90
2022-07-29T01:39:22.015Z,23.00
2022-07-29T01:42:42.793Z,22.90
2022-07-29T01:45:47.951Z,22.80
2022-07-29T01:48:53.986Z,22.80
2022-07-29T01:51:58.528Z,22.70
2022-07-29T01:55:03.282Z,22.70
2022-07-29T01:58:06.731Z,22.80
2022-07-29T02:01:10.378Z,22.70
2022-07-29T02:04:12.901Z,22.50
2022-07-29T02:07:32.984Z,22.70
2022-07-29T02:10:35.463Z,22.70
2022-07-29T02:13:37.894Z,22.70
2022-07-29T02:16:41.014Z,22.70
2022-07-29T02:19:43.451Z,22.60
2022-07-29T02:22:45.921Z,22.50
2022-07-29T02:25:49.690Z,22.70
2022-07-29T02:28:53.380Z,22.50
2022-07-29T02:31:56.795Z,22.30
2022-07-29T02:34:59.453Z,22.40
2022-07-29T02:38:02.345Z,22.40
2022-07-29T02:41:12.162Z,22.20
2022-07-29T02:44:15.782Z,22.30
2022-07-29T02:47:20.216Z,22.20
2022-07-29T02:50:24.409Z,22.20
2022-07-29T02:53:27.692Z,22.20
2022-07-29T02:56:30.989Z,22.20
2022-07-29T02:59:35.325Z,22.20
2022-07-29T03:02:38.848Z,22.20
2022-07-29T03:05:40.878Z,22.10
2022-07-29T03:08:43.369Z,22.10
2022-07-29T03:11:49.666Z,22.10
2022-07-29T03:14:53.301Z,22.00
2022-07-29T03:17:55.559Z,22.10
2022-07-29T03:20:57.518Z,21.90
2022-07-29T03:23:59.270Z,21.90
2022-07-29T03:27:01.966Z,21.90
2022-07-29T03:30:04.612Z,21.80
2022-07-29T03:33:13.298Z,21.90
2022-07-29T03:36:15.427Z,21.90
2022-07-29T03:39:22.729Z,22.00
2022-07-29T03:42:31.104Z,22.00
2022-07-29T03:45:36.158Z,22.00
2022-07-29T03:48:40.701Z,22.00
2022-07-29T03:51:42.690Z,21.90
2022-07-29T03:54:44.922Z,21.90
2022-07-29T03:57:47.393Z,21.60
2022-07-29T04:00:49.681Z,21.30
2022-07-29T04:03:52.231Z,21.10
2022-07-29T04:06:54.123Z,20.90
2022-07-29T04:09:55.943Z,20.70
2022-07-29T04:12:57.789Z,21.00
2022-07-29T04:15:59.799Z,21.20
2022-07-29T04:19:01.622Z,21.20
2022-07-29T04:22:03.481Z,21.30
2022-07-29T04:25:05.440Z,21.30
2022-07-29T04:28:07.991Z,21.30
2022-07-29T04:31:10.276Z,21.10
2022-07-29T04:34:12.713Z,21.30
2022-07-29T04:37:14.840Z,21.20
2022-07-29T04:40:16.827Z,21.40
2022-07-29T04:43:22.547Z,21.40
2022-07-29T04:46:25.115Z,21.40
2022-07-29T04:49:27.109Z,21.40
2022-07-29T04:52:29.240Z,21.50
2022-07-29T04:55:31.020Z,21.50
2022-07-29T04:58:34.883Z,21.50
2022-07-29T05:01:36.748Z,21.40
2022-07-29T05:04:38.550Z,21.50
2022-07-29T05:07:40.344Z,21.40
2022-07-29T05:10:42.093Z,21.50
2022-07-29T05:13:46.082Z,21.40
2022-07-29T05:16:48.916Z,21.40
2022-07-29T05:19:50.719Z,21.50
2022-07-29T05:22:52.539Z,21.40
2022-07-29T05:25:54.367Z,21.60
2022-07-29T05:28:56.225Z,21.50
2022-07-29T05:31:58.004Z,21.60
2022-07-29T05:34:59.937Z,21.50
2022-07-29T05:38:01.883Z,21.40
2022-07-29T05:41:04.019Z,21.60
2022-07-29T05:44:05.904Z,21.90
2022-07-29T05:47:07.682Z,22.20
2022-07-29T05:50:09.633Z,22.30
2022-07-29T05:53:19.921Z,22.50
2022-07-29T05:56:22.505Z,22.70
2022-07-29T05:59:29.855Z,22.90
2022-07-29T06:02:32.192Z,23.00
2022-07-29T06:05:34.081Z,23.20
2022-07-29T06:08:36.835Z,23.70
2022-07-29T06:11:38.595Z,24.00
2022-07-29T06:14:40.482Z,24.20
2022-07-29T06:18:00.050Z,24.60
2022-07-29T06:21:08.346Z,24.90
2022-07-29T06:24:11.723Z,25.20
2022-07-29T06:27:14.409Z,25.50
2022-07-29T06:30:16.246Z,26.00
2022-07-29T06:33:21.241Z,26.20
2022-07-29T06:36:25.157Z,26.00
2022-07-29T06:39:27.065Z,25.70
2022-07-29T06:42:28.956Z,25.80
2022-07-29T06:45:31.632Z,25.90
2022-07-29T06:48:33.848Z,26.00
2022-07-29T06:51:35.796Z,25.80
2022-07-29T06:54:37.656Z,25.70
2022-07-29T06:57:39.542Z,25.80
2022-07-29T07:00:41.855Z,26.20
2022-07-29T07:03:43.812Z,26.40
2022-07-29T07:06:47.818Z,26.40
2022-07-29T07:09:49.854Z,26.80
2022-07-29T07:12:52.200Z,27.00
2022-07-29T07:15:59.935Z,27.20
2022-07-29T07:19:06.361Z,28.00
2022-07-29T07:22:11.740Z,27.70
2022-07-29T07:25:15.786Z,27.70
2022-07-29T07:28:18.214Z,27.90
2022-07-29T07:31:20.507Z,28.40
2022-07-29T07:34:29.575Z,29.00
2022-07-29T07:37:32.314Z,29.20
2022-07-29T07:40:37.561Z,29.90
2022-07-29T07:43:43.155Z,29.40
2022-07-29T07:46:45.438Z,28.90
2022-07-29T07:49:48.730Z,28.50
2022-07-29T07:52:59.747Z,28.50
2022-07-29T07:56:17.246Z,28.70
2022-07-29T07:59:19.357Z,29.00
2022-07-29T08:02:21.970Z,28.80
2022-07-29T08:05:26.556Z,28.50
2022-07-29T08:08:28.609Z,29.10
2022-07-29T08:11:35.231Z,29.60
2022-07-29T08:14:42.824Z,30.00
2022-07-29T08:17:47.932Z,30.80
2022-07-29T08:20:50.093Z,30.40
2022-07-29T08:23:58.668Z,29.10
2022-07-29T08:27:03.190Z,29.00
2022-07-29T08:30:05.696Z,29.50
2022-07-29T08:33:07.715Z,29.90
2022-07-29T08:36:22.834Z,30.10
2022-07-29T08:39:25.573Z,30.90
2022-07-29T08:42:29.978Z,31.70
2022-07-29T08:45:35.694Z,31.50
2022-07-29T08:48:38.224Z,32.10
2022-07-29T08:51:49.625Z,32.30
2022-07-29T08:54:53.315Z,31.60
2022-07-29T08:57:57.485Z,31.30
2022-07-29T09:01:02.436Z,30.90
2022-07-29T09:04:08.273Z,30.50
2022-07-29T09:07:17.456Z,30.40
2022-07-29T09:10:19.464Z,30.70
2022-07-29T09:13:21.461Z,30.50
2022-07-29T09:16:50.990Z,30.90
2022-07-29T09:19:45.920Z,31.50
2022-07-29T09:22:52.845Z,32.50
2022-07-29T09:25:56.335Z,32.80
2022-07-29T09:28:59.447Z,33.50
2022-07-29T09:32:07.256Z,33.30
2022-07-29T09:35:33.403Z,34.00
2022-07-29T09:39:00.223Z,34.00
2022-07-29T09:42:03.934Z,34.50
2022-07-29T09:45:07.445Z,34.90
2022-07-29T09:48:17.191Z,35.20
2022-07-29T09:51:25.583Z,35.20
2022-07-29T09:54:35.347Z,35.30
2022-07-29T09:57:40.103Z,34.80
2022-07-29T10:00:49.402Z,34.90
2022-07-29T11:03:39.994Z,34.00
2022-07-29T11:07:04.112Z,33.60
2022-07-29T11:10:14.881Z,34.10
2022-07-29T11:13:41.075Z,34.20
2022-07-29T11:17:02.693Z,34.20
2022-07-29T11:20:27.336Z,34.20
2022-07-29T11:23:34.787Z,33.50
2022-07-29T11:26:37.136Z,33.80
2022-07-29T11:29:48.772Z,33.50
2022-07-29T11:32:51.660Z,33.20
2022-07-29T11:36:28.165Z,33.10
2022-07-29T11:39:37.229Z,33.20
2022-07-29T11:42:41.753Z,32.90
2022-07-29T11:45:47.308Z,32.40
2022-07-29T11:48:49.555Z,32.10
2022-07-29T11:51:54.910Z,31.80
2022-07-29T11:55:00.834Z,31.40
2022-07-29T11:58:11.835Z,31.20
2022-07-29T12:01:18.141Z,31.10
2022-07-29T12:04:20.023Z,31.10
2022-07-29T12:07:34.679Z,31.20
2022-07-29T12:10:37.460Z,31.30
2022-07-29T12:13:40.253Z,31.50
2022-07-29T12:16:44.340Z,31.50
2022-07-29T12:19:46.192Z,31.50
2022-07-29T12:22:48.118Z,31.30
2022-07-29T12:25:50.136Z,31.10
2022-07-29T12:28:52.046Z,31.20
2022-07-29T12:31:58.095Z,31.00
2022-07-29T12:35:01.382Z,31.30
2022-07-29T12:38:03.667Z,31.50
2022-07-29T12:41:05.662Z,31.80
2022-07-29T12:44:07.447Z,31.90
2022-07-29T12:47:09.259Z,32.00
2022-07-29T12:50:12.047Z,32.00
2022-07-29T12:53:13.924Z,32.00
2022-07-29T12:56:41.610Z,32.00
2022-07-29T12:59:40.605Z,32.00
2022-07-29T13:02:43.013Z,32.00
2022-07-29T13:05:49.454Z,32.00
2022-07-29T13:09:00.354Z,32.00
2022-07-29T13:12:06.613Z,32.30
2022-07-29T13:15:15.754Z,32.50
2022-07-29T13:18:27.781Z,32.30
2022-07-29T13:21:29.669Z,32.10
2022-07-29T13:24:31.484Z,32.00
2022-07-29T13:27:34.650Z,32.00
2022-07-29T13:30:36.508Z,32.00
2022-07-29T13:33:46.553Z,32.00
2022-07-29T13:36:48.337Z,32.00
2022-07-29T13:39:53.017Z,31.90
2022-07-29T13:42:55.218Z,32.10
2022-07-29T13:45:57.101Z,31.80
2022-07-29T13:48:59.065Z,31.90
2022-07-29T13:52:01.276Z,32.00
2022-07-29T13:55:03.791Z,31.90
2022-07-29T13:58:05.638Z,32.00
2022-07-29T14:01:07.512Z,32.00
2022-07-29T14:04:10.485Z,31.70
2022-07-29T14:07:16.255Z,31.60
2022-07-29T14:10:20.199Z,31.70
2022-07-29T14:13:25.260Z,31.60
2022-07-29T14:16:27.636Z,31.50
2022-07-29T14:19:29.587Z,31.50
2022-07-29T14:22:31.456Z,31.40
2022-07-29T14:25:33.910Z,31.50
2022-07-29T14:28:39.007Z,31.30
2022-07-29T14:31:43.732Z,31.20
2022-07-29T14:34:45.526Z,31.30
2022-07-29T14:37:47.324Z,31.10
2022-07-29T14:40:50.874Z,31.10
2022-07-29T14:43:52.888Z,31.10
2022-07-29T14:46:54.681Z,31.20
2022-07-29T14:49:56.528Z,31.30
2022-07-29T14:52:58.334Z,31.20
2022-07-29T14:56:15.103Z,31.10
2022-07-29T14:59:22.776Z,31.30
2022-07-29T15:02:45.679Z,31.00
2022-07-29T15:05:47.791Z,31.20
2022-07-29T15:08:50.000Z,31.20
2022-07-29T15:11:51.998Z,31.20
2022-07-29T15:14:53.894Z,31.20
2022-07-29T15:17:55.705Z,31.10
2022-07-29T15:20:57.560Z,31.10
2022-07-29T15:23:59.401Z,31.00
2022-07-29T15:27:01.233Z,31.00
2022-07-29T15:30:03.145Z,31.20
2022-07-29T15:33:04.974Z,31.20
2022-07-29T15:36:07.011Z,31.20
2022-07-29T15:39:08.806Z,31.40
2022-07-29T15:42:10.613Z,31.50
2022-07-29T15:45:12.388Z,31.50
2022-07-29T15:48:14.896Z,31.50
2022-07-29T15:51:18.776Z,31.40
2022-07-29T15:54:20.577Z,31.40
2022-07-29T15:57:22.934Z,31.20
2022-07-29T16:00:24.803Z,31.20
2022-07-29T16:03:26.675Z,31.00
2022-07-29T16:06:28.557Z,30.90
2022-07-29T16:09:30.413Z,30.80
2022-07-29T16:12:32.252Z,30.70
2022-07-29T16:15:34.091Z,30.60
2022-07-29T16:18:35.937Z,30.60
2022-07-29T16:21:38.449Z,30.60
2022-07-29T16:24:40.551Z,30.70
2022-07-29T16:27:42.528Z,30.80
2022-07-29T16:30:44.470Z,30.70
2022-07-29T16:33:54.705Z,30.60
2022-07-29T16:36:57.550Z,30.60
2022-07-29T16:39:59.397Z,30.60
2022-07-29T16:43:01.220Z,30.60
2022-07-29T16:46:03.075Z,30.60
2022-07-29T16:49:04.973Z,30.70
2022-07-29T16:52:06.865Z,30.70
2022-07-29T16:55:08.806Z,30.70
2022-07-29T16:58:11.101Z,30.80
2022-07-29T17:01:12.984Z,30.80
2022-07-29T17:04:14.864Z,30.80
2022-07-29T17:07:16.700Z,30.90
2022-07-29T17:10:18.779Z,30.80
2022-07-29T17:13:20.691Z,30.80
2022-07-29T17:16:22.547Z,30.70
2022-07-29T17:19:24.560Z,30.60
2022-07-29T17:22:26.344Z,30.80
2022-07-29T17:25:28.187Z,30.70
2022-07-29T17:28:29.974Z,30.70
2022-07-29T17:31:32.086Z,30.70
2022-07-29T17:34:33.936Z,30.60
2022-07-29T17:37:36.010Z,30.60
2022-07-29T17:40:37.855Z,30.50
2022-07-29T17:43:39.697Z,30.50
2022-07-29T17:46:41.796Z,30.40
2022-07-29T17:49:44.409Z,30.40
2022-07-29T17:52:46.190Z,30.20
2022-07-29T17:55:48.133Z,30.20
2022-07-29T17:58:50.320Z,30.10
2022-07-29T18:01:52.271Z,30.00
2022-07-29T18:04:54.049Z,30.10
2022-07-29T18:07:55.817Z,30.00
2022-07-29T18:10:57.612Z,29.90
2022-07-29T18:13:59.385Z,29.80
2022-07-29T18:17:04.320Z,29.80
2022-07-29T18:20:06.950Z,29.70
2022-07-29T18:23:09.072Z,29.50
2022-07-29T18:26:10.898Z,29.60
2022-07-29T18:29:12.733Z,29.40
2022-07-29T18:32:14.509Z,29.20
2022-07-29T18:35:16.802Z,29.00
2022-07-29T18:38:18.855Z,29.00
2022-07-29T18:41:20.664Z,29.00
2022-07-29T18:44:22.976Z,28.90
2022-07-29T18:47:24.833Z,28.80
2022-07-29T18:50:34.312Z,28.70
2022-07-29T18:53:36.901Z,28.70
2022-07-29T18:56:40.233Z,28.50
2022-07-29T18:59:42.068Z,28.50
2022-07-29T19:02:44.036Z,28.40
2022-07-29T19:05:46.053Z,28.50
2022-07-29T19:08:47.933Z,28.30
2022-07-29T19:11:53.049Z,28.30
2022-07-29T19:14:57.695Z,28.20
2022-07-29T19:18:01.290Z,28.20
2022-07-29T19:21:03.602Z,28.10
2022-07-29T19:24:10.046Z,28.10
2022-07-29T19:27:14.278Z,28.00
2022-07-29T19:30:16.067Z,27.80
2022-07-29T19:33:18.425Z,27.90
2022-07-29T19:36:20.539Z,27.80
2022-07-29T19:39:31.985Z,27.70
2022-07-29T19:42:37.554Z,27.70
2022-07-29T19:45:39.685Z,27.60
2022-07-29T19:48:41.538Z,27.50
2022-07-29T19:51:43.384Z,27.50
2022-07-29T19:54:46.298Z,27.60
2022-07-29T19:57:48.191Z,27.60
2022-07-29T20:00:50.111Z,27.50
2022-07-29T20:03:51.901Z,27.50
2022-07-29T20:06:53.899Z,27.50
2022-07-29T20:09:56.160Z,27.50
2022-07-29T20:12:58.276Z,27.50
2022-07-29T20:16:00.744Z,27.40
2022-07-29T20:19:02.768Z,27.40
2022-07-29T20:22:04.699Z,27.30
2022-07-29T20:25:07.037Z,27.20
2022-07-29T20:28:08.991Z,27.20
2022-07-29T20:31:10.992Z,27.20
2022-07-29T20:34:13.002Z,27.10
2022-07-29T20:37:14.896Z,26.90
2022-07-29T20:40:16.954Z,27.00
2022-07-29T20:43:18.742Z,26.90
2022-07-29T20:46:20.696Z,26.90
2022-07-29T20:49:22.760Z,26.80
2022-07-29T20:52:24.949Z,26.70
2022-07-29T20:55:27.318Z,26.70
2022-07-29T20:58:29.367Z,26.80
2022-07-29T21:01:33.489Z,26.90
2022-07-29T21:04:35.403Z,26.70
2022-07-29T21:07:37.343Z,26.70
2022-07-29T21:10:39.378Z,26.60
2022-07-29T21:13:41.855Z,26.60
2022-07-29T21:16:43.833Z,26.60
2022-07-29T21:19:45.879Z,26.60
2022-07-29T21:22:47.673Z,26.50
2022-07-29T21:25:49.539Z,26.40
2022-07-29T21:28:51.376Z,26.20
2022-07-29T21:31:53.396Z,26.30
2022-07-29T21:34:55.204Z,26.10
2022-07-29T21:37:57.005Z,26.10
2022-07-29T21:40:58.811Z,26.00
2022-07-29T21:44:01.379Z,25.80
2022-07-29T21:47:03.911Z,25.80
2022-07-29T21:50:07.221Z,25.70
2022-07-29T21:53:12.824Z,25.70
2022-07-29T21:56:18.096Z,25.70
2022-07-29T21:59:19.907Z,25.70
2022-07-29T22:02:21.668Z,25.50
2022-07-29T22:05:23.892Z,25.40
2022-07-29T22:08:25.978Z,25.30
2022-07-29T22:11:27.733Z,25.40
2022-07-29T22:14:29.508Z,25.30
2022-07-29T22:17:31.701Z,25.20
2022-07-29T22:20:33.538Z,25.20
2022-07-29T22:23:36.592Z,25.30
2022-07-29T22:26:38.457Z,25.10
2022-07-29T22:29:40.399Z,25.00
2022-07-29T22:32:42.287Z,25.00
2022-07-29T22:35:44.054Z,25.10
2022-07-29T22:38:49.144Z,24.90
2022-07-29T22:41:53.619Z,24.90
2022-07-29T22:44:55.371Z,24.70
2022-07-29T22:47:59.105Z,24.60
2022-07-29T22:51:01.301Z,24.70
2022-07-29T22:54:04.017Z,24.70
2022-07-29T22:57:05.931Z,24.70
2022-07-29T23:00:08.144Z,24.70
2022-07-29T23:03:10.156Z,24.50
2022-07-29T23:06:12.090Z,24.40
2022-07-29T23:09:13.888Z,24.50
2022-07-29T23:12:15.830Z,24.40
2022-07-29T23:15:18.235Z,24.40
2022-07-29T23:18:20.223Z,24.40
2022-07-29T23:21:24.698Z,24.00
2022-07-29T23:24:26.501Z,24.10
2022-07-29T23:27:28.311Z,24.10
2022-07-29T23:30:30.229Z,24.10
2022-07-29T23:33:32.123Z,24.10
2022-07-29T23:36:33.916Z,24.10
2022-07-29T23:39:35.713Z,23.90
2022-07-29T23:42:37.740Z,24.00
2022-07-29T23:45:44.597Z,24.00
2022-07-29T23:48:47.169Z,24.00
2022-07-29T23:51:49.277Z,24.00
2022-07-29T23:54:51.238Z,23.90
2022-07-29T23:57:53.025Z,23.80
